Baia da Traicao, Brazil
Current Conditions -  °F | °C
As of 5:00 PM on Sunday 25 Jan 2015 (Local Time) from SBJP Reporting Station
Scattered Clouds Scattered Clouds  
Wind Chill: 82°   Ceiling: Unl
Heat Index: 86°   Visibility: 6mi
Dew Point: 70°   Wind: 12mph
Humidity: 66%   Direction: 120°ESE
Pressure: 29.88"   Gusts: NA
Location:  6.69°S, 34.94°W
Report Text: SBJP 252000Z 12010KT 9999 SCT030 28/21 Q1012
Loading
Personal Weather Stations






























Interactive Weather Map New forecast layout! Learn more

10-Day Weather Forecast

Advertisements
Track Severe Weather on mobile